Погода Педро Леополдона неделю

Минас-Жерайс, Бразилия

25 - 31 июля
  • 25июля
    Сегодня
    +13°
    +26°
    Ясно и безоблачно
    ВремяПогодаТемператураВлажностьДавлениеВетер, м/сВероятность осадков
    00:00Ясно и безоблачно+15°C66 %695 мм1.7 м/с5 %
    03:00Небольшая облачность+14°C70 %694 мм1.9 м/с5 %
    06:00Ясно и безоблачно+14°C76 %694 мм3.7 м/с5 %
    09:00Ясно и безоблачно+17°C63 %696 мм2.5 м/с5 %
    12:00Ясно и безоблачно+23°C39 %696 мм2.0 м/с5 %
    15:00Ясно и безоблачно+25°C34 %694 мм1.8 м/с5 %
    18:00Ясно и безоблачно+22°C45 %693 мм2.6 м/с5 %
    21:00Ясно и безоблачно+19°C56 %693 мм3.3 м/с5 %
  • 26июля
    Пятница
    +15°
    +27°
    Практически безоблачно
    ВремяПогодаТемператураВлажностьДавлениеВетер, м/сВероятность осадков
    00:00Ясно и безоблачно+17°C72 %693 мм1.9 м/с5 %
    03:00Ясно и безоблачно+15°C78 %692 мм1.6 м/с5 %
    06:00Ясно и безоблачно+14°C81 %692 мм3.5 м/с5 %
    09:00Ясно и безоблачно+18°C49 %695 мм2.4 м/с5 %
    12:00Ясно и безоблачно+24°C32 %694 мм1.8 м/с5 %
    15:00Практически безоблачно+26°C27 %693 мм1.6 м/с5 %
    18:00Ясно и безоблачно+23°C34 %692 мм2.6 м/с5 %
    21:00Ясно и безоблачно+20°C59 %693 мм3.2 м/с5 %
  • 27июля
    Суббота
    +16°
    +28°
    Небольшая облачность
    ВремяПогодаТемператураВлажностьДавлениеВетер, м/сВероятность осадков
    00:00Небольшая облачность+18°C63 %693 мм1.8 м/с5 %
    03:00Облачно с прояснениями+16°C69 %692 мм1.8 м/с5 %
    06:00Облачно с прояснениями+15°C73 %692 мм3.5 м/с5 %
    09:00Ясно и безоблачно+19°C56 %694 мм2.3 м/с5 %
    12:00Ясно и безоблачно+25°C35 %694 мм2.2 м/с5 %
    15:00Небольшая облачность+27°C28 %693 мм2.3 м/с5 %
    18:00Небольшая облачность+24°C42 %693 мм2.6 м/с5 %
    21:00Ясно и безоблачно+21°C63 %694 мм3.3 м/с5 %
  • 28июля
    Воскресенье
    +16°
    +28°
    Небольшая облачность
    ВремяПогодаТемператураВлажностьДавлениеВетер, м/сВероятность осадков
    00:00Ясно и безоблачно+18°C75 %694 мм1.7 м/с5 %
    03:00Ясно и безоблачно+17°C78 %693 мм2.1 м/с5 %
    06:00Ясно и безоблачно+16°C78 %693 мм3.5 м/с5 %
    09:00Ясно и безоблачно+20°C60 %695 мм2.6 м/с4 %
    12:00Практически безоблачно+26°C36 %695 мм2.4 м/с6 %
    15:00Небольшая облачность+27°C31 %693 мм3.0 м/с5 %
    18:00Ясно и безоблачно+24°C41 %694 мм2.5 м/с5 %
    21:00Ясно и безоблачно+21°C62 %694 мм3.4 м/с8 %
Мы используем cookies
Соглашаюсь